createdAt,value
2023-04-14T00:02:06.690Z,100723.53
2023-04-14T00:04:34.041Z,100730.50
2023-04-14T00:07:01.334Z,100732.22
2023-04-14T00:09:28.247Z,100733.06
2023-04-14T00:11:56.514Z,100726.16
2023-04-14T00:14:23.584Z,100723.53
2023-04-14T00:16:50.532Z,100711.38
2023-04-14T00:19:17.461Z,100717.44
2023-04-14T00:21:44.400Z,100713.00
2023-04-14T00:24:11.293Z,100715.59
2023-04-14T00:26:38.166Z,100716.44
2023-04-14T00:29:05.119Z,100728.59
2023-04-14T00:31:32.215Z,100725.16
2023-04-14T00:34:00.782Z,100723.41
2023-04-14T00:36:27.920Z,100720.84
2023-04-14T00:38:54.821Z,100728.63
2023-04-14T00:41:21.805Z,100732.09
2023-04-14T00:43:48.800Z,100730.31
2023-04-14T00:46:17.309Z,100726.00
2023-04-14T00:48:44.604Z,100720.81
2023-04-14T00:51:12.060Z,100732.03
2023-04-14T00:53:40.952Z,100748.41
2023-04-14T00:56:08.267Z,100754.44
2023-04-14T00:58:35.841Z,100760.50
2023-04-14T01:01:02.987Z,100768.28
2023-04-14T01:03:30.030Z,100767.38
2023-04-14T01:05:58.263Z,100776.91
2023-04-14T01:08:25.788Z,100777.81
2023-04-14T01:11:08.762Z,100780.34
2023-04-14T01:13:54.137Z,100789.78
2023-04-14T01:16:36.001Z,100788.75
2023-04-14T01:19:45.481Z,100786.03
2023-04-14T01:22:15.038Z,100782.47
2023-04-14T01:25:14.513Z,100782.41
2023-04-14T01:28:14.216Z,100778.88
2023-04-14T01:30:57.285Z,100785.81
2023-04-14T01:33:27.651Z,100793.66
2023-04-14T01:35:58.900Z,100793.75
2023-04-14T01:38:29.914Z,100797.28
2023-04-14T01:41:02.973Z,100794.72
2023-04-14T01:43:34.310Z,100796.53
2023-04-14T01:46:09.791Z,100801.75
2023-04-14T01:48:38.299Z,100800.94
2023-04-14T01:51:07.511Z,100807.91
2023-04-14T01:53:40.336Z,100801.91
2023-04-14T01:56:09.534Z,100794.06
2023-04-14T01:58:37.491Z,100799.34
2023-04-14T02:01:05.464Z,100789.75
2023-04-14T02:03:33.419Z,100802.69
2023-04-14T02:06:03.197Z,100802.66
2023-04-14T02:08:32.897Z,100801.84
2023-04-14T02:11:03.072Z,100794.91
2023-04-14T02:13:33.015Z,100803.59
2023-04-14T02:16:01.887Z,100806.22
2023-04-14T02:18:31.460Z,100811.44
2023-04-14T02:21:01.397Z,100799.34
2023-04-14T02:23:28.801Z,100799.38
2023-04-14T02:26:02.817Z,100800.28
2023-04-14T02:28:34.675Z,100791.66
2023-04-14T02:31:09.017Z,100796.84
2023-04-14T02:33:37.639Z,100804.63
2023-04-14T02:36:22.512Z,100795.03
2023-04-14T02:38:59.802Z,100789.75
2023-04-14T02:41:29.839Z,100795.78
2023-04-14T02:44:14.135Z,100787.13
2023-04-14T02:47:08.113Z,100794.91
2023-04-14T02:49:43.572Z,100787.13
2023-04-14T02:52:16.634Z,100789.78
2023-04-14T02:54:46.574Z,100796.72
2023-04-14T02:57:14.727Z,100801.06
2023-04-14T02:59:46.950Z,100801.97
2023-04-14T03:02:16.266Z,100798.53
2023-04-14T03:04:50.148Z,100805.47
2023-04-14T03:07:27.350Z,100813.31
2023-04-14T03:09:55.871Z,100810.69
2023-04-14T03:12:24.509Z,100809.88
2023-04-14T03:14:52.145Z,100814.19
2023-04-14T03:17:21.226Z,100802.94
2023-04-14T03:19:52.612Z,100799.53
2023-04-14T03:22:22.218Z,100799.53
2023-04-14T03:24:50.754Z,100791.69
2023-04-14T03:27:25.901Z,100800.41
2023-04-14T03:29:55.727Z,100801.19
2023-04-14T03:32:30.338Z,100810.78
2023-04-14T03:34:59.099Z,100803.88
2023-04-14T03:37:28.398Z,100810.84
2023-04-14T03:40:00.602Z,100816.03
2023-04-14T03:42:30.173Z,100804.81
2023-04-14T03:45:00.416Z,100818.69
2023-04-14T03:47:31.719Z,100819.56
2023-04-14T03:50:03.634Z,100812.63
2023-04-14T03:52:35.535Z,100815.25
2023-04-14T03:55:08.603Z,100810.94
2023-04-14T03:57:37.680Z,100804.88
2023-04-14T04:00:08.477Z,100810.16
2023-04-14T04:02:43.912Z,100806.69
2023-04-14T04:05:12.740Z,100810.19
2023-04-14T04:07:41.762Z,100806.72
2023-04-14T04:10:09.526Z,100807.59
2023-04-14T04:12:38.162Z,100807.63
2023-04-14T04:15:08.378Z,100811.09
2023-04-14T04:17:37.179Z,100800.72
2023-04-14T04:20:10.590Z,100808.50
2023-04-14T04:22:41.163Z,100802.44
2023-04-14T04:25:10.299Z,100805.94
2023-04-14T04:27:38.437Z,100805.97
2023-04-14T04:30:14.827Z,100801.66
2023-04-14T04:32:42.016Z,100798.19
2023-04-14T04:35:11.534Z,100801.66
2023-04-14T04:37:41.416Z,100795.56
2023-04-14T04:40:08.971Z,100807.72
2023-04-14T04:42:44.079Z,100797.28
2023-04-14T04:45:56.209Z,100804.28
2023-04-14T04:48:23.781Z,100802.53
2023-04-14T04:50:50.718Z,100808.59
2023-04-14T04:53:18.569Z,100802.41
2023-04-14T04:55:45.651Z,100804.06
2023-04-14T04:58:12.547Z,100804.88
2023-04-14T05:00:39.870Z,100801.28
2023-04-14T05:03:07.083Z,100810.75
2023-04-14T05:05:37.290Z,100808.94
2023-04-14T05:08:04.494Z,100803.66
2023-04-14T05:10:34.658Z,100809.78
2023-04-14T05:13:01.550Z,100806.28
2023-04-14T05:15:28.462Z,100812.34
2023-04-14T05:17:55.467Z,100807.94
2023-04-14T05:20:22.472Z,100794.00
2023-04-14T05:22:49.360Z,100812.31
2023-04-14T05:25:16.277Z,100814.94
2023-04-14T05:27:43.191Z,100809.75
2023-04-14T05:30:10.938Z,100809.72
2023-04-14T05:32:37.852Z,100806.25
2023-04-14T05:35:05.390Z,100809.78
2023-04-14T05:37:32.755Z,100815.91
2023-04-14T05:40:01.374Z,100812.47
2023-04-14T05:42:28.269Z,100806.47
2023-04-14T05:44:55.252Z,100813.47
2023-04-14T05:47:22.117Z,100806.69
2023-04-14T05:49:49.017Z,100811.97
2023-04-14T05:52:16.056Z,100807.69
2023-04-14T05:54:43.324Z,100811.25
2023-04-14T05:57:10.325Z,100803.47
2023-04-14T05:59:37.265Z,100806.13
2023-04-14T06:02:07.272Z,100808.75
2023-04-14T06:04:34.507Z,100794.88
2023-04-14T06:07:02.891Z,100804.47
2023-04-14T06:09:29.862Z,100802.66
2023-04-14T06:11:56.875Z,100795.69
2023-04-14T06:14:23.932Z,100798.31
2023-04-14T06:16:51.050Z,100794.91
2023-04-14T06:19:21.069Z,100788.00
2023-04-14T06:21:48.036Z,100786.25
2023-04-14T06:24:14.925Z,100776.69
2023-04-14T06:26:42.430Z,100793.28
2023-04-14T06:29:09.419Z,100788.13
2023-04-14T06:31:36.448Z,100789.91
2023-04-14T06:34:03.344Z,100785.66
2023-04-14T06:36:30.193Z,100787.41
2023-04-14T06:38:58.293Z,100797.03
2023-04-14T06:41:25.316Z,100791.84
2023-04-14T06:43:52.247Z,100792.72
2023-04-14T06:46:19.308Z,100794.50
2023-04-14T06:48:46.349Z,100781.50
2023-04-14T06:51:13.778Z,100795.38
2023-04-14T06:53:40.804Z,100783.22
2023-04-14T06:56:08.235Z,100779.75
2023-04-14T06:58:35.277Z,100779.75
2023-04-14T07:01:03.632Z,100783.25
2023-04-14T07:03:31.237Z,100768.47
2023-04-14T07:06:06.910Z,100778.94
2023-04-14T07:08:35.200Z,100783.31
2023-04-14T07:11:04.297Z,100778.16
2023-04-14T07:13:31.664Z,100788.59
2023-04-14T07:15:59.345Z,100784.34
2023-04-14T07:18:26.325Z,100788.72
2023-04-14T07:20:54.198Z,100793.13
2023-04-14T07:23:22.085Z,100783.56
2023-04-14T07:25:53.721Z,100794.03
2023-04-14T07:28:22.118Z,100794.91
2023-04-14T07:30:50.203Z,100786.22
2023-04-14T07:33:19.042Z,100797.53
2023-04-14T07:36:00.765Z,100796.66
2023-04-14T07:38:29.691Z,100801.88
2023-04-14T07:40:56.676Z,100795.81
2023-04-14T07:43:23.943Z,100799.28
2023-04-14T07:45:52.585Z,100800.16
2023-04-14T07:48:21.378Z,100793.22
2023-04-14T07:50:49.916Z,100797.56
2023-04-14T07:53:16.904Z,100793.25
2023-04-14T07:55:43.836Z,100790.63
2023-04-14T07:58:15.365Z,100797.59
2023-04-14T08:00:43.019Z,100788.88
2023-04-14T08:03:10.282Z,100796.72
2023-04-14T08:05:37.778Z,100791.47
2023-04-14T08:08:05.023Z,100795.84
2023-04-14T08:10:31.963Z,100804.53
2023-04-14T08:12:59.836Z,100795.84
2023-04-14T08:15:27.939Z,100800.19
2023-04-14T08:17:54.895Z,100805.41
2023-04-14T08:20:22.851Z,100812.38
2023-04-14T08:22:49.775Z,100810.63
2023-04-14T08:25:16.812Z,100806.28
2023-04-14T08:27:44.250Z,100803.66
2023-04-14T08:30:11.774Z,100813.22
2023-04-14T08:32:38.785Z,100814.97
2023-04-14T08:35:38.738Z,100821.94
2023-04-14T08:37:53.440Z,100818.44
2023-04-14T08:40:22.519Z,100821.06
2023-04-14T08:42:49.845Z,100809.72
2023-04-14T08:45:19.137Z,100821.03
2023-04-14T08:47:48.438Z,100832.38
2023-04-14T08:50:18.578Z,100825.41
2023-04-14T08:52:47.474Z,100822.81
2023-04-14T08:55:16.749Z,100831.50
2023-04-14T08:57:44.197Z,100826.28
2023-04-14T09:00:11.840Z,100829.75
2023-04-14T09:02:40.688Z,100821.97
2023-04-14T09:05:09.121Z,100833.25
2023-04-14T09:07:36.887Z,100815.00
2023-04-14T09:10:04.710Z,100828.06
2023-04-14T09:12:32.434Z,100819.38
2023-04-14T09:14:59.805Z,100828.94
2023-04-14T09:17:28.855Z,100830.66
2023-04-14T09:20:38.605Z,100828.94
2023-04-14T09:22:42.965Z,100815.00
2023-04-14T09:25:11.282Z,100822.00
2023-04-14T09:27:38.476Z,100823.72
2023-04-14T09:30:06.829Z,100825.47
2023-04-14T09:32:33.749Z,100826.34
2023-04-14T09:35:00.700Z,100822.88
2023-04-14T09:37:27.584Z,100818.50
2023-04-14T09:39:55.694Z,100824.59
2023-04-14T09:42:42.557Z,100820.22
2023-04-14T09:45:10.197Z,100822.84
2023-04-14T09:47:37.595Z,100810.66
2023-04-14T09:50:04.974Z,100812.38
2023-04-14T09:52:44.686Z,100803.69
2023-04-14T09:55:14.228Z,100803.69
2023-04-14T09:57:47.590Z,100801.94
2023-04-14T10:00:22.466Z,100808.03
2023-04-14T10:02:52.205Z,100806.25
2023-04-14T10:05:31.082Z,100812.34
2023-04-14T10:08:04.157Z,100814.97
2023-04-14T10:10:31.231Z,100815.00
2023-04-14T10:13:00.536Z,100817.56
2023-04-14T10:15:28.124Z,100813.22
2023-04-14T10:17:55.888Z,100814.09
2023-04-14T10:20:22.926Z,100809.75
2023-04-14T10:22:50.676Z,100809.75
2023-04-14T10:25:18.690Z,100808.88
2023-04-14T10:27:45.995Z,100797.56
2023-04-14T10:30:13.126Z,100802.78
2023-04-14T10:32:41.517Z,100796.69
2023-04-14T10:35:14.917Z,100795.84
2023-04-14T10:37:51.426Z,100790.63
2023-04-14T10:40:18.884Z,100792.31
2023-04-14T10:42:57.104Z,100791.47
2023-04-14T10:45:24.131Z,100783.63
2023-04-14T10:47:51.754Z,100783.63
2023-04-14T10:50:24.993Z,100780.13
2023-04-14T10:52:55.733Z,100783.63
2023-04-14T10:55:24.813Z,100780.16
2023-04-14T10:57:54.527Z,100778.44
2023-04-14T11:00:25.176Z,100782.78
2023-04-14T11:03:10.822Z,100773.22
2023-04-14T11:05:53.665Z,100775.81
2023-04-14T11:08:34.521Z,100761.06
2023-04-14T11:11:04.140Z,100759.31
2023-04-14T11:13:35.646Z,100759.31
2023-04-14T11:16:07.252Z,100761.94
2023-04-14T11:18:42.698Z,100761.97
2023-04-14T11:21:16.791Z,100763.66
2023-04-14T11:23:44.373Z,100754.06
2023-04-14T11:26:14.053Z,100750.63
2023-04-14T11:28:43.553Z,100750.63
2023-04-14T11:31:17.153Z,100741.06
2023-04-14T11:33:44.985Z,100747.16
2023-04-14T11:36:12.957Z,100737.56
2023-04-14T11:38:42.556Z,100747.13
2023-04-14T11:41:10.104Z,100742.78
2023-04-14T11:43:46.535Z,100735.84
2023-04-14T11:46:13.618Z,100740.19
2023-04-14T11:48:41.015Z,100741.91
2023-04-14T11:51:07.916Z,100746.28
2023-04-14T11:53:36.332Z,100734.09
2023-04-14T11:56:03.881Z,100743.66
2023-04-14T11:58:31.378Z,100751.47
2023-04-14T12:00:58.275Z,100737.56
2023-04-14T12:03:31.156Z,100742.78
2023-04-14T12:06:03.251Z,100743.66
2023-04-14T12:08:31.447Z,100742.78
2023-04-14T12:10:58.992Z,100737.56
2023-04-14T12:13:26.929Z,100735.84
2023-04-14T12:15:54.569Z,100735.84
2023-04-14T12:18:22.336Z,100737.56
2023-04-14T12:21:01.907Z,100730.63
2023-04-14T12:23:28.885Z,100738.44
2023-04-14T12:25:56.095Z,100742.81
2023-04-14T12:28:30.489Z,100729.75
2023-04-14T12:31:04.028Z,100741.88
2023-04-14T12:33:32.868Z,100734.91
2023-04-14T12:36:08.013Z,100737.53
2023-04-14T12:38:35.000Z,100740.16
2023-04-14T12:41:02.668Z,100736.66
2023-04-14T12:43:36.837Z,100735.81
2023-04-14T12:46:05.681Z,100735.78
2023-04-14T12:48:48.255Z,100729.69
2023-04-14T12:51:17.543Z,100724.50
2023-04-14T12:53:46.896Z,100727.97
2023-04-14T12:56:27.376Z,100735.78
2023-04-14T12:58:55.238Z,100723.63
2023-04-14T13:01:23.597Z,100721.03
2023-04-14T13:03:55.770Z,100732.34
2023-04-14T13:06:24.544Z,100731.47
2023-04-14T13:08:53.558Z,100733.25
2023-04-14T13:11:25.811Z,100738.47
2023-04-14T13:13:53.665Z,100738.44
2023-04-14T13:16:21.395Z,100729.75
2023-04-14T13:18:49.247Z,100726.28
2023-04-14T13:21:16.961Z,100727.13
2023-04-14T13:23:43.965Z,100719.34
2023-04-14T13:26:12.450Z,100715.84
2023-04-14T13:28:39.417Z,100730.63
2023-04-14T13:31:06.813Z,100723.66
2023-04-14T13:33:33.782Z,100711.50
2023-04-14T13:36:03.075Z,100706.28
2023-04-14T13:38:30.829Z,100699.31
2023-04-14T13:40:57.800Z,100693.25
2023-04-14T13:43:24.780Z,100693.25
2023-04-14T13:45:52.001Z,100681.94
2023-04-14T13:48:19.215Z,100685.41
2023-04-14T13:50:46.254Z,100686.28
2023-04-14T13:53:13.164Z,100682.78
2023-04-14T13:55:40.107Z,100688.00
2023-04-14T13:58:07.028Z,100692.38
2023-04-14T14:00:34.012Z,100682.81
2023-04-14T14:03:01.334Z,100683.66
2023-04-14T14:05:28.737Z,100671.50
2023-04-14T14:07:58.628Z,100676.72
2023-04-14T14:10:25.533Z,100680.19
2023-04-14T14:12:53.249Z,100686.28
2023-04-14T14:15:20.286Z,100683.66
2023-04-14T14:17:47.287Z,100675.84
2023-04-14T14:20:14.220Z,100677.59
2023-04-14T14:22:41.099Z,100671.47
2023-04-14T14:25:19.547Z,100681.06
2023-04-14T14:27:47.779Z,100670.63
2023-04-14T14:30:14.724Z,100681.91
2023-04-14T14:32:41.679Z,100665.41
2023-04-14T14:35:09.530Z,100670.59
2023-04-14T14:37:36.572Z,100669.72
2023-04-14T14:40:03.939Z,100668.88
2023-04-14T14:42:31.182Z,100674.94
2023-04-14T14:45:01.028Z,100661.91
2023-04-14T14:47:28.600Z,100667.97
2023-04-14T14:50:02.040Z,100664.50
2023-04-14T14:52:31.977Z,100669.72
2023-04-14T14:54:59.110Z,100676.59
2023-04-14T14:57:26.818Z,100674.84
2023-04-14T14:59:53.952Z,100686.13
2023-04-14T15:02:21.764Z,100673.94
2023-04-14T15:04:49.639Z,100675.69
2023-04-14T15:07:16.664Z,100674.81
2023-04-14T15:09:45.942Z,100670.44
2023-04-14T15:12:12.889Z,100669.56
2023-04-14T15:14:39.797Z,100668.66
2023-04-14T15:17:07.066Z,100672.13
2023-04-14T15:19:34.004Z,100668.66
2023-04-14T15:22:01.520Z,100665.22
2023-04-14T15:24:28.507Z,100672.19
2023-04-14T15:26:56.053Z,100670.44
2023-04-14T15:29:25.072Z,100680.84
2023-04-14T15:31:52.137Z,100665.22
2023-04-14T15:34:19.106Z,100664.41
2023-04-14T15:36:46.007Z,100670.47
2023-04-14T15:39:12.932Z,100662.66
2023-04-14T15:41:39.818Z,100674.78
2023-04-14T15:44:06.697Z,100663.50
2023-04-14T15:46:33.584Z,100669.59
2023-04-14T15:49:00.697Z,100666.97
2023-04-14T15:51:27.628Z,100673.91
2023-04-14T15:53:54.509Z,100660.84
2023-04-14T15:56:23.294Z,100670.41
2023-04-14T15:58:50.590Z,100674.78
2023-04-14T16:01:17.731Z,100673.91
2023-04-14T16:03:45.098Z,100668.69
2023-04-14T16:06:12.298Z,100668.66
2023-04-14T16:08:39.294Z,100660.00
2023-04-14T16:11:06.258Z,100666.94
2023-04-14T16:13:33.192Z,100660.84
2023-04-14T16:16:00.391Z,100647.78
2023-04-14T16:18:27.597Z,100655.63
2023-04-14T16:20:54.473Z,100653.91
2023-04-14T16:23:21.969Z,100653.03
2023-04-14T16:25:51.745Z,100653.03
2023-04-14T16:28:18.657Z,100655.66
2023-04-14T16:30:48.728Z,100666.06
2023-04-14T16:33:16.071Z,100656.50
2023-04-14T16:35:42.940Z,100661.72
2023-04-14T16:38:09.842Z,100653.91
2023-04-14T16:40:37.979Z,100650.41
2023-04-14T16:43:04.945Z,100652.16
2023-04-14T16:45:32.448Z,100656.50
2023-04-14T16:48:00.080Z,100652.16
2023-04-14T16:50:27.545Z,100659.13
2023-04-14T16:52:54.613Z,100651.31
2023-04-14T16:55:21.551Z,100658.25
2023-04-14T16:57:48.562Z,100654.78
2023-04-14T17:00:16.751Z,100666.09
2023-04-14T17:02:43.918Z,100679.94
2023-04-14T17:05:13.217Z,100665.22
2023-04-14T17:07:41.082Z,100664.38
2023-04-14T17:10:08.634Z,100663.50
2023-04-14T17:12:35.575Z,100668.72
2023-04-14T17:15:03.648Z,100665.28
2023-04-14T17:17:31.672Z,100659.19
2023-04-14T17:19:58.577Z,100662.66
2023-04-14T17:22:25.473Z,100654.84
2023-04-14T17:24:52.494Z,100643.56
2023-04-14T17:27:20.165Z,100647.00
2023-04-14T17:29:47.405Z,100656.56
2023-04-14T17:32:14.477Z,100660.00
2023-04-14T17:34:41.515Z,100647.81
2023-04-14T17:37:08.889Z,100668.63
2023-04-14T17:39:35.784Z,100646.94
2023-04-14T17:42:03.426Z,100653.03
2023-04-14T17:44:33.129Z,100660.84
2023-04-14T17:47:12.638Z,100671.25
2023-04-14T17:49:39.591Z,100676.47
2023-04-14T17:52:17.069Z,100668.69
2023-04-14T17:54:45.796Z,100679.97
2023-04-14T17:57:13.417Z,100679.13
2023-04-14T17:59:44.825Z,100675.63
2023-04-14T18:02:14.202Z,100674.78
2023-04-14T18:04:41.219Z,100663.47
2023-04-14T18:07:08.139Z,100683.47
2023-04-14T18:09:35.064Z,100670.44
2023-04-14T18:12:01.997Z,100686.09
2023-04-14T18:14:29.887Z,100682.63
2023-04-14T18:16:57.252Z,100678.28
2023-04-14T18:19:24.428Z,100682.66
2023-04-14T18:21:51.433Z,100681.81
2023-04-14T18:26:48.089Z,100647.03
2023-04-14T18:29:14.988Z,100667.00
2023-04-14T18:31:42.659Z,100660.94
2023-04-14T18:34:10.364Z,100667.03
2023-04-14T18:36:38.757Z,100657.50
2023-04-14T18:39:07.036Z,100659.28
2023-04-14T18:41:34.275Z,100655.81
2023-04-14T18:44:01.307Z,100651.50
2023-04-14T18:46:28.420Z,100648.00
2023-04-14T18:48:55.420Z,100654.94
2023-04-14T18:51:22.412Z,100650.59
2023-04-14T18:53:49.413Z,100649.69
2023-04-14T18:56:16.330Z,100647.06
2023-04-14T18:58:43.221Z,100646.19
2023-04-14T19:01:10.175Z,100630.59
2023-04-14T19:03:37.726Z,100634.06
2023-04-14T19:06:04.799Z,100621.00
2023-04-14T19:08:31.746Z,100629.72
2023-04-14T19:10:59.315Z,100635.84
2023-04-14T19:13:26.519Z,100632.38
2023-04-14T19:15:53.882Z,100628.00
2023-04-14T19:18:20.822Z,100632.31
2023-04-14T19:20:49.539Z,100628.84
2023-04-14T19:23:16.461Z,100626.25
2023-04-14T19:25:43.340Z,100618.44
2023-04-14T19:28:16.515Z,100619.28
2023-04-14T19:30:45.578Z,100612.34
2023-04-14T19:33:12.936Z,100607.13
2023-04-14T19:35:40.052Z,100609.75
2023-04-14T19:38:07.780Z,100602.78
2023-04-14T19:40:34.671Z,100605.41
2023-04-14T19:43:01.840Z,100591.50
2023-04-14T19:45:28.798Z,100602.84
2023-04-14T19:47:55.770Z,100601.09
2023-04-14T19:50:22.787Z,100599.38
2023-04-14T19:52:51.890Z,100606.31
2023-04-14T19:55:19.054Z,100608.94
2023-04-14T19:57:46.994Z,100599.34
2023-04-14T20:00:15.664Z,100600.22
2023-04-14T20:02:42.936Z,100599.34
2023-04-14T20:05:10.043Z,100595.88
2023-04-14T20:07:37.001Z,100606.31
2023-04-14T20:10:04.098Z,100602.84
2023-04-14T20:12:31.063Z,100608.91
2023-04-14T20:14:58.149Z,100610.59
2023-04-14T20:17:27.218Z,100610.59
2023-04-14T20:19:54.766Z,100610.59
2023-04-14T20:22:21.644Z,100614.00
2023-04-14T20:24:48.544Z,100609.63
2023-04-14T20:27:15.456Z,100613.91
2023-04-14T20:29:42.350Z,100612.13
2023-04-14T20:32:09.527Z,100613.84
2023-04-14T20:34:36.419Z,100605.13
2023-04-14T20:37:03.305Z,100625.94
2023-04-14T20:39:30.564Z,100631.97
2023-04-14T20:41:57.477Z,100633.72
2023-04-14T20:44:24.432Z,100632.88
2023-04-14T20:46:51.854Z,100634.66
2023-04-14T20:49:18.725Z,100630.38
2023-04-14T20:51:46.782Z,100638.22
2023-04-14T20:54:13.933Z,100641.72
2023-04-14T20:56:40.821Z,100640.03
2023-04-14T20:59:07.707Z,100642.66
2023-04-14T21:01:34.571Z,100642.66
2023-04-14T21:04:01.565Z,100640.94
2023-04-14T21:06:29.057Z,100631.34
2023-04-14T21:08:56.891Z,100638.31
2023-04-14T21:11:23.767Z,100641.75
2023-04-14T21:15:25.472Z,100647.84
2023-04-14T21:16:38.171Z,100647.00
2023-04-14T21:19:05.532Z,100644.41
2023-04-14T21:21:32.985Z,100640.03
2023-04-14T21:23:59.909Z,100639.16
2023-04-14T21:26:28.398Z,100642.59
2023-04-14T21:28:55.283Z,100644.38
2023-04-14T21:31:22.166Z,100640.03
2023-04-14T21:33:49.004Z,100638.28
2023-04-14T21:36:15.838Z,100628.72
2023-04-14T21:38:43.379Z,100627.88
2023-04-14T21:41:10.684Z,100627.00
2023-04-14T21:43:40.923Z,100621.81
2023-04-14T21:46:08.050Z,100623.53
2023-04-14T21:48:35.030Z,100619.19
2023-04-14T21:51:02.413Z,100608.75
2023-04-14T21:53:29.795Z,100613.94
2023-04-14T21:56:04.431Z,100616.53
2023-04-14T21:58:36.632Z,100606.97
2023-04-14T22:01:03.694Z,100615.63
2023-04-14T22:03:30.816Z,100619.09
2023-04-14T22:05:57.803Z,100612.13
2023-04-14T22:08:24.673Z,100613.81
2023-04-14T22:10:52.809Z,100608.59
2023-04-14T22:13:19.678Z,100599.03
2023-04-14T22:15:47.263Z,100604.28
2023-04-14T22:18:14.126Z,100606.84
2023-04-14T22:20:40.972Z,100607.72
2023-04-14T22:23:07.814Z,100607.72
2023-04-14T22:25:35.496Z,100617.25
2023-04-14T22:28:02.352Z,100612.91
2023-04-14T22:30:29.838Z,100611.19
2023-04-14T22:32:57.340Z,100606.84
2023-04-14T22:35:24.332Z,100608.59
2023-04-14T22:37:51.665Z,100618.13
2023-04-14T22:40:18.574Z,100608.59
2023-04-14T22:42:46.495Z,100618.13
2023-04-14T22:45:13.583Z,100612.94
2023-04-14T22:47:40.726Z,100616.41
2023-04-14T22:50:09.012Z,100618.16
2023-04-14T22:52:36.341Z,100622.50
2023-04-14T22:55:03.394Z,100614.69
2023-04-14T22:57:30.305Z,100611.25
2023-04-14T22:59:57.403Z,100602.56
2023-04-14T23:02:24.471Z,100604.28
2023-04-14T23:04:52.063Z,100605.16
2023-04-14T23:07:18.952Z,100601.69
2023-04-14T23:09:45.827Z,100594.72
2023-04-14T23:12:12.691Z,100609.47
2023-04-14T23:14:39.559Z,100593.84
2023-04-14T23:17:06.699Z,100593.00
2023-04-14T23:19:33.651Z,100593.00
2023-04-14T23:22:00.545Z,100590.41
2023-04-14T23:24:27.490Z,100589.53
2023-04-14T23:26:54.439Z,100598.19
2023-04-14T23:29:21.415Z,100594.72
2023-04-14T23:31:48.346Z,100594.69
2023-04-14T23:34:15.276Z,100591.25
2023-04-14T23:36:42.462Z,100592.97
2023-04-14T23:39:09.330Z,100592.97
2023-04-14T23:41:36.182Z,100586.03
2023-04-14T23:44:03.077Z,100592.94
2023-04-14T23:46:30.025Z,100597.28
2023-04-14T23:48:57.823Z,100592.94
2023-04-14T23:51:27.041Z,100586.84
2023-04-14T23:53:54.121Z,100590.28
2023-04-14T23:56:21.345Z,100590.28
2023-04-14T23:58:48.530Z,100591.13
